Latest Weather Observations for Degrussa Aerodrome

IDW60801

Issued at 12:13 pm WST Saturday 22 February 2020 (issued every 10 minutes, with the page automatically refreshed every 10 minutes)

About weather observations | Map of weather stations | Latest weather observations for WA | Other Formats
Station Details ID: 507500 Name: DEGRUSSA AERODROME Lat: -25.56 Lon: 119.29 Height: 550.91 m
Data from the previous 72 hours. | See also: Recent months for locations in Western Australia
Date/Time
WST
Temp
°C
App
Temp
°C
Dew
Point
°C
Rel
Hum
%
Delta-T
°C
Wind Press
QNH
hPa
Press
MSL
hPa
Rain since
9am
mm
Dir  Spd
km/h
Gust
km/h
Spd
kts
Gust
kts
22/12:00pm 34.1 33.2 19.0 41 10.1 NNW 22 39 12 21 1012.1 1007.6 0.0
22/11:30am 33.9 32.5 18.8 41 10.1 NNW 24 35 13 19 1012.6 1008.2 0.0
22/11:00am 33.1 32.3 18.5 42 9.7 NNW 20 30 11 16 1013.3 1008.8 0.0
22/10:30am 32.4 31.5 17.8 41 9.6 NNW 19 28 10 15 1013.4 1008.9 0.0
22/10:00am 32.1 31.0 17.2 41 9.7 NNW 19 24 10 13 1013.6 1009.1 0.0
22/09:30am 31.3 29.8 15.3 38 10.1 N 17 24 9 13 1013.6 1009.1 0.0
22/09:00am 30.3 28.2 13.6 36 10.2 NNE 17 22 9 12 1013.6 1009.1 0.0
22/08:30am 28.6 27.7 13.7 40 9.1 NE 11 17 6 9 1013.6 1009.1 0.0
22/08:00am 26.9 25.7 14.0 45 7.9 NE 13 19 7 10 1013.5 1009.0 0.0
22/07:30am 26.4 25.0 14.5 48 7.3 ENE 15 20 8 11 1013.3 1008.8 0.0
22/07:00am 26.0 25.1 14.8 50 6.9 ENE 13 17 7 9 1013.1 1008.7 0.0
22/06:30am 25.1 26.0 16.5 59 5.4 E 7 11 4 6 1013.0 1008.6 0.0
22/06:00am 24.6 26.3 18.1 67 4.2 SSE 6 6 3 3 1013.1 1008.7 0.0
22/05:30am 24.7 27.0 18.6 69 4.0 SW 4 4 2 2 1013.0 1008.6 0.0
22/05:00am 25.0 26.6 15.9 57 5.7 SE 2 4 1 2 1012.8 1008.4 0.0
22/04:30am 25.5 26.5 16.4 57 5.7 SE 6 7 3 4 1012.4 1008.0 0.0
22/04:00am 25.7 26.6 16.5 56 5.8 ESE 7 11 4 6 1012.3 1007.9 0.0
22/03:30am 25.8 26.4 16.9 58 5.6 ESE 9 13 5 7 1012.2 1007.7 0.0
22/03:00am 25.6 26.1 16.5 57 5.7 NE 9 11 5 6 1012.7 1008.3 0.0
22/02:30am 26.1 26.3 15.8 53 6.4 NNE 9 15 5 8 1013.0 1008.6 0.0
22/02:00am 27.5 25.6 13.1 41 8.7 ENE 15 19 8 10 1012.6 1008.2 0.0
22/01:30am 27.8 25.5 13.0 40 8.9 E 17 24 9 13 1012.6 1008.2 0.0
22/01:00am 27.6 25.9 13.5 41 8.5 E 15 20 8 11 1012.8 1008.4 0.0
22/12:30am 27.7 26.0 13.6 42 8.6 E 15 20 8 11 1013.0 1008.6 0.0
22/12:00am 28.2 25.9 12.9 38 9.2 E 17 24 9 13 1013.0 1008.6 0.0
 
Date/Time
WST
Temp
°C
App
Temp
°C
Dew
Point
°C
Rel
Hum
%
Delta-T
°C
Wind Press
QNH
hPa
Press
MSL
hPa
Rain since
9am
mm
Dir  Spd
km/h
Gust
km/h
Spd
kts
Gust
kts
21/11:30pm 28.7 25.7 12.6 37 9.7 ESE 20 28 11 15 1013.0 1008.6 0.0
21/11:00pm 28.8 25.9 12.2 35 9.9 ESE 19 30 10 16 1012.9 1008.5 0.0
21/10:30pm 28.9 26.4 12.3 36 9.9 ESE 17 24 9 13 1013.3 1008.8 0.0
21/10:00pm 29.3 26.4 12.3 35 10.2 ESE 19 26 10 14 1013.5 1009.0 0.0
21/09:30pm 29.6 26.1 12.1 34 10.5 ESE 22 30 12 16 1013.1 1008.7 0.0
21/09:00pm 30.0 26.1 12.0 33 10.8 ESE 24 32 13 17 1012.9 1008.5 0.0
21/08:30pm 30.3 27.2 12.2 33 10.9 ESE 20 30 11 16 1012.8 1008.4 0.0
21/08:00pm 30.6 27.4 12.0 32 11.1 ESE 20 26 11 14 1012.6 1008.2 0.0
21/07:30pm 31.1 28.1 12.0 31 11.5 ESE 19 26 10 14 1012.4 1008.0 0.0
21/07:00pm 31.6 29.0 11.9 30 11.8 ESE 17 22 9 12 1012.1 1007.6 0.0
21/06:30pm 32.4 29.1 11.6 28 12.5 ESE 20 30 11 16 1011.6 1007.1 0.0
21/06:00pm 32.9 29.6 10.9 26 13.1 ESE 19 26 10 14 1011.4 1006.9 0.0
21/05:30pm 33.2 29.6 10.5 25 13.4 ESE 20 28 11 15 1011.4 1006.9 0.0
21/05:00pm 33.5 30.2 10.8 25 13.5 ESE 19 30 10 16 1011.2 1006.8 0.0
21/04:30pm 33.9 30.5 11.1 25 13.6 ESE 20 30 11 16 1011.0 1006.6 0.0
21/04:00pm 33.8 30.0 11.0 25 13.6 ESE 22 32 12 17 1011.2 1006.8 0.0
21/03:30pm 33.7 31.3 11.5 26 13.4 E 15 24 8 13 1011.5 1007.0 0.0
21/03:00pm 33.9 31.0 11.1 25 13.7 E 17 28 9 15 1011.8 1007.3 0.0
21/02:30pm 33.6 31.0 12.0 27 13.1 ENE 17 28 9 15 1011.9 1007.4 0.0
21/02:00pm 32.9 30.5 12.5 29 12.4 E 17 30 9 16 1012.4 1008.0 0.0
21/01:30pm 32.5 30.0 12.2 29 12.3 E 17 28 9 15 1012.6 1008.2 0.0
21/01:00pm 32.1 30.1 12.8 30 11.8 ENE 15 26 8 14 1012.9 1008.5 0.0
21/12:30pm 31.1 29.0 12.5 32 11.2 E 15 28 8 15 1013.6 1009.1 0.0
21/12:00pm 30.5 27.9 11.9 31 11.1 E 17 30 9 16 1014.0 1009.6 0.0
21/11:30am 29.9 27.7 13.2 36 10.2 ENE 17 30 9 16 1014.4 1010.0 0.0
21/11:00am 28.8 26.0 13.1 38 9.5 E 20 32 11 17 1014.8 1010.4 0.0
21/10:30am 27.6 24.9 13.5 41 8.5 E 20 39 11 21 1015.3 1010.8 0.0
21/10:00am 27.1 23.7 13.8 44 8.1 ESE 24 33 13 18 1015.4 1010.9 0.0
21/09:30am 25.9 23.5 14.4 49 7.0 E 20 33 11 18 1015.8 1011.4 0.0
21/09:00am 24.5 21.9 13.7 51 6.5 ESE 20 28 11 15 1015.9 1011.5 0.2
21/08:30am 23.4 20.9 14.1 56 5.6 ESE 20 32 11 17 1015.7 1011.3 0.2
21/08:00am 22.9 20.4 14.2 58 5.2 ESE 20 28 11 15 1015.5 1011.0 0.2
21/07:30am 22.6 20.1 14.2 59 5.0 E 20 30 11 16 1015.6 1011.2 0.2
21/07:00am 21.8 20.7 14.4 63 4.4 E 13 19 7 10 1016.1 1011.7 0.2
21/06:30am 21.6 19.6 14.0 62 4.5 E 17 26 9 14 1015.4 1010.9 0.2
21/06:00am 21.6 20.1 14.3 63 4.4 ESE 15 20 8 11 1015.2 1010.7 0.2
21/05:30am 21.8 21.1 14.2 62 4.5 SE 11 17 6 9 1015.3 1010.8 0.2
21/05:00am 21.8 21.1 14.4 63 4.4 SE 11 17 6 9 1015.0 1010.6 0.2
21/04:30am 21.8 21.5 14.4 63 4.4 SE 9 15 5 8 1015.0 1010.6 0.2
21/04:00am 21.9 22.0 14.5 63 4.5 SE 7 13 4 7 1015.0 1010.6 0.2
21/03:30am 21.8 21.2 14.7 64 4.3 SE 11 15 6 8 1014.8 1010.4 0.2
21/03:00am 21.8 21.9 15.4 67 3.9 SSE 9 17 5 9 1014.8 1010.4 0.2
21/02:30am 22.0 21.9 14.9 64 4.3 SE 9 13 5 7 1015.2 1010.7 0.2
21/02:00am 22.3 21.3 14.7 62 4.6 ESE 13 19 7 10 1015.3 1010.8 0.2
21/01:30am 22.5 22.7 15.8 66 4.1 SE 9 11 5 6 1015.9 1011.5 0.2
21/01:00am 22.7 21.9 16.0 66 4.1 SE 15 22 8 12 1015.7 1011.3 0.2
21/12:30am 22.8 23.2 17.3 71 3.5 SSE 11 17 6 9 1015.9 1011.5 0.2
21/12:00am 23.0 22.8 16.8 68 3.9 SE 13 22 7 12 1015.8 1011.4 0.2
 
Date/Time
WST
Temp
°C
App
Temp
°C
Dew
Point
°C
Rel
Hum
%
Delta-T
°C
Wind Press
QNH
hPa
Press
MSL
hPa
Rain since
9am
mm
Dir  Spd
km/h
Gust
km/h
Spd
kts
Gust
kts
20/11:30pm 23.3 22.8 16.8 67 4.1 ESE 15 24 8 13 1015.9 1011.5 0.2
20/11:00pm 23.7 22.2 16.7 65 4.4 SE 20 28 11 15 1015.8 1011.4 0.2
20/10:30pm 23.8 22.9 16.8 65 4.4 SE 17 24 9 13 1015.9 1011.5 0.2
20/10:00pm 24.0 22.7 16.8 64 4.5 ESE 19 30 10 16 1015.6 1011.2 0.2
20/09:30pm 24.3 23.2 16.3 61 5.0 ESE 17 28 9 15 1015.5 1011.0 0.2
20/09:00pm 24.8 22.6 16.0 58 5.5 ESE 22 28 12 15 1015.5 1011.0 0.2
20/08:30pm 25.3 23.3 16.4 57 5.6 SE 22 28 12 15 1014.9 1010.5 0.2
20/08:00pm 25.6 23.9 16.2 56 5.9 ESE 20 35 11 19 1014.6 1010.2 0.2
20/07:30pm 26.0 24.9 17.4 59 5.5 SE 19 26 10 14 1014.3 1009.9 0.2
20/07:00pm 26.4 26.2 17.5 58 5.7 SE 15 22 8 12 1013.9 1009.4 0.2
20/06:30pm 26.7 25.4 17.2 56 6.1 SE 20 28 11 15 1013.0 1008.6 0.2
20/06:00pm 27.1 25.7 17.0 54 6.4 SE 20 26 11 14 1012.9 1008.5 0.2
20/05:30pm 27.6 25.9 17.2 53 6.7 SE 22 28 12 15 1012.3 1007.9 0.2
20/05:00pm 28.0 26.8 17.5 52 6.8 ESE 20 28 11 15 1012.2 1007.7 0.2
20/04:30pm 28.3 26.6 17.2 51 7.1 ESE 22 30 12 16 1012.4 1008.0 0.2
20/04:00pm 28.5 26.4 17.1 50 7.3 ESE 24 32 13 17 1012.2 1007.7 0.2
20/03:30pm 28.1 26.4 18.2 55 6.4 ESE 24 37 13 20 1012.2 1007.7 0.2
20/03:00pm 28.0 25.7 17.5 52 6.8 E 26 37 14 20 1012.4 1008.0 0.2
20/02:30pm 28.0 25.0 17.8 54 6.6 ESE 30 39 16 21 1012.5 1008.1 0.2
20/02:00pm 27.7 24.7 16.9 51 6.9 E 28 41 15 22 1012.7 1008.3 0.2
20/01:30pm 26.9 23.3 17.7 57 5.9 E 33 46 18 25 1012.9 1008.5 0.2
20/01:00pm 26.6 24.0 18.7 62 5.2 ESE 30 43 16 23 1013.1 1008.7 0.2
20/12:33pm 26.0 22.4 17.6 60 5.4 E 33 52 18 28 1012.8 1008.4 0.2
20/12:30pm 26.3 23.3 18.7 63 5.0 ESE 32 44 17 24 1012.9 1008.5 0.2
20/12:00pm 25.1 20.7 17.6 63 4.8 E 37 48 20 26 1013.1 1008.7 0.2
20/11:30am 24.7 20.8 17.9 66 4.4 ESE 35 48 19 26 1013.6 1009.1 0.2
20/11:00am 24.3 19.8 18.2 68 3.9 E 39 54 21 29 1013.4 1008.9 0.2
20/10:34am 23.3 18.9 18.4 74 3.2 ESE 39 59 21 32 1013.7 1009.2 0.2
20/10:30am 23.1 19.1 18.6 76 2.9 ESE 37 48 20 26 1013.8 1009.3 0.2
20/10:00am 22.1 19.3 19.1 83 1.9 ESE 32 44 17 24 1014.3 1009.9 0.2
20/09:30am 21.5 19.3 18.7 84 1.8 ESE 28 39 15 21 1015.2 1010.7 0.0
20/09:00am 21.4 19.6 18.8 85 1.7 ESE 26 35 14 19 1015.4 1010.9 10.2
20/08:30am 20.9 20.3 18.8 88 1.3 SE 20 28 11 15 1015.9 1011.5 10.2
20/08:00am 20.9 21.1 19.4 91 1.0 SE 17 24 9 13 1015.6 1011.2 10.2
20/07:30am 20.4 21.2 19.1 92 0.8 SE 13 19 7 10 1015.8 1011.4 10.0
20/07:00am 20.4 22.0 19.1 92 0.8 SE 9 15 5 8 1016.1 1011.7 9.2
20/06:30am 20.6 22.2 19.1 91 1.0 SSE 9 13 5 7 1015.8 1011.4 8.2
20/06:00am 20.9 23.4 19.0 89 1.2 SSE 4 6 2 3 1015.7 1011.3 7.4
20/05:30am 20.8 22.4 19.1 90 1.1 SSE 9 15 5 8 1014.8 1010.4 6.8
20/05:00am 21.0 22.3 18.4 85 1.7 ENE 9 13 5 7 1014.8 1010.4 6.4
20/04:30am 21.0 22.8 19.5 91 1.0 NNE 9 13 5 7 1014.7 1010.3 5.4
20/04:00am 21.0 22.1 19.7 92 0.8 N 13 20 7 11 1014.7 1010.3 4.0
20/03:30am 21.6 22.6 20.2 92 0.9 NNW 15 20 8 11 1014.7 1010.3 2.2
20/03:00am 22.1 21.4 19.6 86 1.6 NW 22 28 12 15 1013.8 1009.3 0.4
20/02:30am 26.1 25.0 17.2 58 5.7 WNW 19 35 10 19 1013.3 1008.8 0.0
20/02:00am 26.4 26.2 16.6 55 6.2 SE 13 20 7 11 1011.7 1007.2 0.0
20/01:30am 28.0 25.9 15.3 46 7.9 E 20 28 11 15 1011.1 1006.7 0.0
20/01:00am 28.5 25.6 15.1 44 8.4 E 24 39 13 21 1010.7 1006.3 0.0
20/12:30am 29.4 27.7 14.8 41 9.1 E 17 24 9 13 1010.9 1006.5 0.0
20/12:00am 30.0 28.1 14.1 37 9.8 ESE 17 24 9 13 1010.9 1006.5 0.0
 
Date/Time
WST
Temp
°C
App
Temp
°C
Dew
Point
°C
Rel
Hum
%
Delta-T
°C
Wind Press
QNH
hPa
Press
MSL
hPa
Rain since
9am
mm
Dir  Spd
km/h
Gust
km/h
Spd
kts
Gust
kts
19/11:30pm 30.2 28.3 14.3 38 9.8 ESE 17 24 9 13 1010.9 1006.5 0.0
19/11:00pm 29.4 29.9 15.5 43 8.7 ESE 7 13 4 7 1011.2 1006.8 0.0
19/10:30pm 29.5 30.7 14.9 41 9.1 ESE 2 6 1 3 1011.2 1006.8 0.0
19/10:00pm 29.9 30.3 14.8 39 9.4 ESE 6 7 3 4 1011.2 1006.8 0.0
19/09:30pm 30.7 30.2 13.9 36 10.4 SE 9 13 5 7 1011.0 1006.6 0.0
19/09:00pm 31.0 31.1 15.4 38 9.9 SSW 9 11 5 6 1011.0 1006.6 0.0
19/08:30pm 32.3 31.7 13.5 32 11.6 E 9 11 5 6 1010.6 1006.2 0.0
19/08:00pm 32.4 32.4 13.6 32 11.6 ESE 6 9 3 5 1010.6 1006.2 0.0
19/07:30pm 31.8 32.1 13.5 32 11.3 SW 4 4 2 2 1010.1 1005.6 0.0
19/07:00pm 32.9 32.9 12.5 29 12.4 W 4 6 2 3 1009.7 1005.2 0.0
19/06:30pm 33.9 33.7 11.7 26 13.4 W 4 6 2 3 1009.3 1004.9 0.0
19/06:00pm 34.7 34.7 11.2 24 14.2 NW 2 6 1 3 1009.2 1004.8 0.0
19/05:30pm 34.8 34.4 11.2 24 14.2 ENE 4 11 2 6 1009.5 1005.0 0.0
19/05:00pm 34.8 35.0 11.9 25 13.9 ENE 2 7 1 4 1009.7 1005.2 0.0
19/04:30pm 34.6 34.9 12.3 26 13.6 NE 2 6 1 3 1010.0 1005.5 0.0
19/04:00pm 34.6 34.5 13.4 28 13.2 W 6 11 3 6 1010.2 1005.7 0.0
19/03:30pm 34.3 34.7 13.7 29 12.8 S 4 11 2 6 1010.3 1005.8 0.0
19/03:00pm 34.1 33.9 14.6 31 12.3 WNW 9 17 5 9 1010.4 1005.9 0.0
19/02:30pm 33.8 33.5 14.3 31 12.2 NNW 9 15 5 8 1010.7 1006.3 0.0
19/02:00pm 33.6 33.6 15.1 33 11.7 NNW 9 19 5 10 1011.2 1006.8 0.0
19/01:30pm 33.3 33.0 14.4 32 11.8 N 9 24 5 13 1011.5 1007.0 0.0
19/01:00pm 32.8 33.1 13.4 30 12.0 NNE 4 9 2 5 1012.1 1007.6 0.0
19/12:30pm 31.7 30.6 13.0 32 11.4 NE 11 19 6 10 1012.7 1008.3 0.0

Other formats

Comma delimited format used in spreadsheet applications
http://www.bom.gov.au/fwo/IDW60801/IDW60801.99400.axf

JavaScript Object Notation format (JSON) in row-major order
http://www.bom.gov.au/fwo/IDW60801/IDW60801.99400.json

Data quality

Most of these data are generated automatically and are frequently updated. Quality checks on data are not normally performed. It is possible for incorrect values to appear. Refer to information at About Latest Weather Observations and please check the disclaimer before using these data.